KDFW/DFW METAR and TAF weather

Enter ICAO airport designator
Station Type Date Time Source
KDFW METAR 2021/07/29 17:53 UTC NOAA

KDFW 291753Z 00000KT 10SM SCT045 SCT250 35/21 A3005 RMK AO2 SLP165 T03500206 10356 20256 58013


Station Type Date Time Source
KDFW Decoded METAR 2021/07/29 17:53 UTC NOAA

DALLAS/FT. WORTH INTERNATIONAL AIRPORT , TX, United States (KDFW) 32-54N 097-02W 174M
Jul 29, 2021 - 01:53 PM EDT / 2021.07.29 1753 UTC
Wind: Calm:0
Visibility: 10 mile(s):0
Sky conditions: partly cloudy
Temperature: 95.0 F (35.0 C)
Heat index: 100.8 F (38.2 C):1
Dew Point: 69.1 F (20.6 C)
Relative Humidity: 43%
Pressure (altimeter): 30.05 in. Hg (1017 hPa)
Pressure tendency: 0.04 inches (1.3 hPa) lower than three hours ago
ob: KDFW 291753Z 00000KT 10SM SCT045 SCT250 35/21 A3005 RMK AO2 SLP165 T03500206 10356 20256 58013
cycle: 18

Station Type Date Time Source
KDFW TAF 2021/07/29 12:22 UTC NOAA

TAF KDFW 291120Z 2912/3018 16006KT P6SM SCT250

Example: see airport list